Jacksonville, FL (32099)

8:39 PM EDT on August 28, 2015 (GMT -0400)
Normandy Heights 32205 | | Change Station
CLOSE
Current Station
Personal Weather Station
Location: Jacksonville, FL
Elevation: 20 ft
Nearby Weather Stations

Elev 20 ft 30.30 °N, 81.76 °W | Updated 43 seconds ago

Overcast
Overcast
74.3 °F
Feels Like 71 °F
N
0.0
Wind Variable Wind from SSE
Gusts 0.0 mph

Today
High -- | Low -- °F
--% Chance of Precip.
Yesterday
High -- | Low -- °F
Precip. -- in
7:01 AM 7:54 PM
Waxing Gibbous, 99% visible
Pressure 30.05 in
Visibility 10.0 miles
Clouds Scattered Clouds 3500 ft
Mostly Cloudy 8000 ft
Overcast 11000 ft
Heat Index 71 °F
Dew Point 74 °F
Humidity 99%
Rainfall 0.46 in
Snow Depth Not available.
UV 0 out of 12
Pollen 6.10 out of 12
Air Quality Not available.
Flu Activity Not available.
METAR KNIP 282353Z 16005KT 10SM -RA SCT035 BKN080 OVC110 27/23 A3006 RMK AO2 RAB03 SLP175 T2 SET P0000 60002 T02720228 10339 20261 50008 $
Pressure 30.05 in
Visibility 10.0 miles
Clouds Scattered Clouds 3500 ft
Mostly Cloudy 8000 ft
Overcast 11000 ft
Heat Index 71 °F
Dew Point 74 °F
Humidity 99%
Rainfall 0.46 in
Snow Depth Not available.
UV 0 out of 12
Pollen 6.10 out of 12
Air Quality Not available.
Flu Activity Not available.
METAR KNIP 282353Z 16005KT 10SM -RA SCT035 BKN080 OVC110 27/23 A3006 RMK AO2 RAB03 SLP175 T2 SET P0000 60002 T02720228 10339 20261 50008 $
Erika has become very unorganized in the face of strong wind shear in the eastern Caribbean Sea. The storm will pass directly over mountainous Hispaniola today, likely weakening it further. If the storm remains intact, it could reach an area favorable for strengthening before moving onto Florida by early next week. Follow the live blog

10-Day Weather Forecast

×

Almanac

Astronomy

Aug. 28, 2015 Rise Set
Actual Time
Civil Twilight
Nautical Twilight
Astronomical Twilight
Moon
Length of Visible Light
Length of Day
Tomorrow will be .
, % of the Moon is Illuminated

Today's Extremes

State Highs State Lows

Community

WunderPhotos

Upload Photos

1,850,548 photos uploaded!

WunderBlogs® & News

Nearby

Air Quality

  Air Quality AQ Index Pollutant
Not available.

Snow Depth

Station Depth Elevation

Earthquake Activity

City Distance Mag. Time & Date
Minimum magnitude displayed is 2.5.

Coastal Water Temperatures

Place Temperature

Stations

Nearby Weather Stations

Station Location Temp. Windchill Dew Point Humidity Wind Precip. Elev Updated Type